createdAt,value
2022-08-25T00:00:18.706Z,18.91
2022-08-25T00:03:04.187Z,18.92
2022-08-25T00:05:33.747Z,18.91
2022-08-25T00:08:06.495Z,18.91
2022-08-25T00:10:37.418Z,18.91
2022-08-25T00:13:07.136Z,18.88
2022-08-25T00:15:36.296Z,18.86
2022-08-25T00:18:05.756Z,18.85
2022-08-25T00:20:48.858Z,18.85
2022-08-25T00:23:18.911Z,18.85
2022-08-25T00:25:47.913Z,18.85
2022-08-25T00:28:17.091Z,18.84
2022-08-25T00:30:46.024Z,18.83
2022-08-25T00:33:14.866Z,18.83
2022-08-25T00:35:45.485Z,18.82
2022-08-25T00:38:14.199Z,18.82
2022-08-25T00:40:42.969Z,18.80
2022-08-25T00:43:12.454Z,18.79
2022-08-25T00:45:40.834Z,18.78
2022-08-25T00:48:09.453Z,18.74
2022-08-25T00:50:37.939Z,18.70
2022-08-25T00:53:08.797Z,18.66
2022-08-25T00:55:40.045Z,18.60
2022-08-25T00:58:29.662Z,18.56
2022-08-25T01:00:58.473Z,18.50
2022-08-25T01:03:33.043Z,18.47
2022-08-25T01:06:04.632Z,18.45
2022-08-25T01:08:34.122Z,18.43
2022-08-25T01:11:05.495Z,18.43
2022-08-25T01:13:51.427Z,18.42
2022-08-25T01:16:20.781Z,18.40
2022-08-25T01:18:57.746Z,18.39
2022-08-25T01:21:29.080Z,18.35
2022-08-25T01:24:00.266Z,18.33
2022-08-25T01:26:32.539Z,18.31
2022-08-25T01:29:25.619Z,18.26
2022-08-25T01:32:03.411Z,18.23
2022-08-25T01:34:34.860Z,18.20
2022-08-25T01:37:03.947Z,18.17
2022-08-25T01:39:39.283Z,18.14
2022-08-25T01:42:09.249Z,18.11
2022-08-25T01:44:40.658Z,18.09
2022-08-25T01:47:09.085Z,18.09
2022-08-25T01:49:37.451Z,18.09
2022-08-25T01:52:12.902Z,18.08
2022-08-25T01:54:41.238Z,18.06
2022-08-25T01:57:09.660Z,18.03
2022-08-25T01:59:38.304Z,18.00
2022-08-25T02:02:06.947Z,17.96
2022-08-25T02:04:35.671Z,17.94
2022-08-25T02:07:07.143Z,17.91
2022-08-25T02:09:37.050Z,17.89
2022-08-25T02:12:05.836Z,17.87
2022-08-25T02:14:35.849Z,17.86
2022-08-25T02:17:05.615Z,17.87
2022-08-25T02:19:34.243Z,17.88
2022-08-25T02:22:02.936Z,17.89
2022-08-25T02:24:31.731Z,17.89
2022-08-25T02:27:00.096Z,17.91
2022-08-25T02:29:28.598Z,17.90
2022-08-25T02:31:56.975Z,17.91
2022-08-25T02:34:25.384Z,17.89
2022-08-25T02:36:53.705Z,17.87
2022-08-25T02:39:22.050Z,17.85
2022-08-25T02:41:50.626Z,17.84
2022-08-25T02:44:18.964Z,17.82
2022-08-25T02:46:47.337Z,17.81
2022-08-25T02:49:15.672Z,17.80
2022-08-25T02:51:44.010Z,17.79
2022-08-25T02:54:12.374Z,17.78
2022-08-25T02:56:42.651Z,17.77
2022-08-25T02:59:12.738Z,17.75
2022-08-25T03:01:41.180Z,17.75
2022-08-25T03:04:10.062Z,17.76
2022-08-25T03:06:38.735Z,17.76
2022-08-25T03:09:07.550Z,17.74
2022-08-25T03:11:38.479Z,17.70
2022-08-25T03:14:09.399Z,17.67
2022-08-25T03:16:38.477Z,17.63
2022-08-25T03:19:07.225Z,17.60
2022-08-25T03:21:38.542Z,17.59
2022-08-25T03:24:07.287Z,17.59
2022-08-25T03:26:53.880Z,17.57
2022-08-25T03:29:28.511Z,17.55
2022-08-25T03:31:59.245Z,17.52
2022-08-25T03:34:30.513Z,17.50
2022-08-25T03:36:59.590Z,17.50
2022-08-25T03:39:29.243Z,17.49
2022-08-25T03:41:57.636Z,17.50
2022-08-25T03:44:25.969Z,17.52
2022-08-25T03:46:54.352Z,17.55
2022-08-25T03:49:24.739Z,17.57
2022-08-25T03:51:55.146Z,17.58
2022-08-25T03:54:25.743Z,17.57
2022-08-25T03:56:54.825Z,17.55
2022-08-25T03:59:23.259Z,17.54
2022-08-25T04:01:55.067Z,17.52
2022-08-25T04:04:24.113Z,17.49
2022-08-25T04:06:53.177Z,17.48
2022-08-25T04:09:21.544Z,17.48
2022-08-25T04:11:52.012Z,17.47
2022-08-25T04:14:23.864Z,17.47
2022-08-25T04:16:53.169Z,17.49
2022-08-25T04:19:22.275Z,17.50
2022-08-25T04:21:51.903Z,17.54
2022-08-25T04:24:25.974Z,17.58
2022-08-25T04:26:54.630Z,17.62
2022-08-25T04:29:25.631Z,17.65
2022-08-25T04:31:55.574Z,17.70
2022-08-25T04:34:29.645Z,17.75
2022-08-25T04:37:03.138Z,17.81
2022-08-25T04:39:32.552Z,17.87
2022-08-25T04:42:02.071Z,17.94
2022-08-25T04:44:32.097Z,18.01
2022-08-25T04:47:01.591Z,18.08
2022-08-25T04:49:30.006Z,18.14
2022-08-25T04:51:58.391Z,18.23
2022-08-25T04:54:28.408Z,18.31
2022-08-25T04:56:58.747Z,18.40
2022-08-25T04:59:30.209Z,18.50
2022-08-25T05:02:03.383Z,18.60
2022-08-25T05:04:34.423Z,18.68
2022-08-25T05:07:03.900Z,18.78
2022-08-25T05:09:33.485Z,18.89
2022-08-25T05:12:03.474Z,18.99
2022-08-25T05:14:33.016Z,19.10
2022-08-25T05:17:02.266Z,19.23
2022-08-25T05:19:31.629Z,19.37
2022-08-25T05:21:59.948Z,19.49
2022-08-25T05:24:28.421Z,19.53
2022-08-25T05:26:57.533Z,19.53
2022-08-25T05:29:25.946Z,19.54
2022-08-25T05:31:54.714Z,19.56
2022-08-25T05:34:23.116Z,19.54
2022-08-25T05:36:51.711Z,19.52
2022-08-25T05:39:20.163Z,19.51
2022-08-25T05:41:48.544Z,19.49
2022-08-25T05:44:20.988Z,19.47
2022-08-25T05:46:51.433Z,19.43
2022-08-25T05:49:20.017Z,19.40
2022-08-25T05:51:48.503Z,19.39
2022-08-25T05:54:16.881Z,19.45
2022-08-25T05:56:45.708Z,19.63
2022-08-25T05:59:14.070Z,19.88
2022-08-25T06:02:01.328Z,20.18
2022-08-25T06:04:30.027Z,20.58
2022-08-25T06:06:58.583Z,20.95
2022-08-25T06:09:26.955Z,21.29
2022-08-25T06:11:55.557Z,21.64
2022-08-25T06:14:25.240Z,21.95
2022-08-25T06:16:53.710Z,22.25
2022-08-25T06:19:23.779Z,22.55
2022-08-25T06:21:56.825Z,22.85
2022-08-25T06:24:27.329Z,23.12
2022-08-25T06:26:55.528Z,23.35
2022-08-25T06:29:24.136Z,23.56
2022-08-25T06:31:52.825Z,23.74
2022-08-25T06:34:23.900Z,23.96
2022-08-25T06:36:53.285Z,24.20
2022-08-25T06:39:21.738Z,24.42
2022-08-25T06:41:56.981Z,24.52
2022-08-25T06:44:27.954Z,24.65
2022-08-25T06:46:56.318Z,24.80
2022-08-25T06:49:29.300Z,25.01
2022-08-25T06:52:00.142Z,25.23
2022-08-25T06:54:28.416Z,25.34
2022-08-25T06:56:57.209Z,25.50
2022-08-25T06:59:31.980Z,25.67
2022-08-25T07:02:03.303Z,25.95
2022-08-25T07:04:32.861Z,26.22
2022-08-25T07:07:01.433Z,26.49
2022-08-25T07:09:29.702Z,26.72
2022-08-25T07:11:57.952Z,26.87
2022-08-25T07:14:26.255Z,27.10
2022-08-25T07:16:54.428Z,27.33
2022-08-25T07:19:23.164Z,27.60
2022-08-25T07:21:53.048Z,27.91
2022-08-25T07:24:21.851Z,28.16
2022-08-25T07:26:50.474Z,28.03
2022-08-25T07:29:32.780Z,27.75
2022-08-25T07:32:02.899Z,27.59
2022-08-25T07:34:52.504Z,27.46
2022-08-25T07:37:47.774Z,27.35
2022-08-25T07:40:21.470Z,27.27
2022-08-25T07:42:51.383Z,27.21
2022-08-25T07:45:21.128Z,27.17
2022-08-25T07:47:51.471Z,27.17
2022-08-25T07:50:20.193Z,27.19
2022-08-25T07:52:50.903Z,27.14
2022-08-25T07:55:23.689Z,27.12
2022-08-25T07:57:55.369Z,27.13
2022-08-25T08:00:28.032Z,27.09
2022-08-25T08:02:57.397Z,27.06
2022-08-25T08:05:26.384Z,27.08
2022-08-25T08:07:55.132Z,27.10
2022-08-25T08:13:14.372Z,27.26
2022-08-25T08:15:47.001Z,27.45
2022-08-25T08:18:16.139Z,27.64
2022-08-25T08:20:45.636Z,27.87
2022-08-25T08:23:14.082Z,28.20
2022-08-25T08:25:42.276Z,28.53
2022-08-25T08:28:10.896Z,28.91
2022-08-25T08:30:39.398Z,29.25
2022-08-25T08:33:11.232Z,29.57
2022-08-25T08:35:41.991Z,29.86
2022-08-25T08:38:16.020Z,30.02
2022-08-25T08:41:23.074Z,30.25
2022-08-25T08:43:56.697Z,30.46
2022-08-25T08:46:36.811Z,30.70
2022-08-25T08:49:17.047Z,31.02
2022-08-25T08:51:54.155Z,31.17
2022-08-25T08:54:26.352Z,31.28
2022-08-25T08:57:03.916Z,31.36
2022-08-25T08:59:42.045Z,31.49
2022-08-25T09:02:14.785Z,31.67
2022-08-25T09:05:04.511Z,31.92
2022-08-25T09:07:41.257Z,31.89
2022-08-25T09:10:11.216Z,31.86
2022-08-25T09:12:59.579Z,31.66
2022-08-25T09:15:57.507Z,31.43
2022-08-25T09:18:51.349Z,31.34
2022-08-25T09:21:25.925Z,31.42
2022-08-25T09:23:57.151Z,31.55
2022-08-25T09:26:38.135Z,31.72
2022-08-25T09:29:16.245Z,31.86
2022-08-25T09:31:45.740Z,31.86
2022-08-25T09:34:19.755Z,32.05
2022-08-25T09:36:51.002Z,32.23
2022-08-25T09:39:20.970Z,32.32
2022-08-25T09:41:52.266Z,32.26
2022-08-25T09:44:24.311Z,32.29
2022-08-25T09:46:55.682Z,32.28
2022-08-25T09:49:30.976Z,32.00
2022-08-25T09:52:19.346Z,32.04
2022-08-25T09:54:50.414Z,32.07
2022-08-25T09:57:48.184Z,32.00
2022-08-25T10:00:23.791Z,32.20
2022-08-25T10:03:05.904Z,32.45
2022-08-25T10:05:36.776Z,32.58
2022-08-25T10:08:11.301Z,32.54
2022-08-25T10:10:53.399Z,32.48
2022-08-25T10:13:23.896Z,32.53
2022-08-25T10:16:18.059Z,32.61
2022-08-25T10:19:07.332Z,32.91
2022-08-25T10:21:36.579Z,32.82
2022-08-25T10:24:06.286Z,32.62
2022-08-25T10:26:42.759Z,32.39
2022-08-25T10:29:12.186Z,32.45
2022-08-25T10:31:56.998Z,32.50
2022-08-25T10:34:40.242Z,32.51
2022-08-25T10:37:19.690Z,32.30
2022-08-25T10:40:06.994Z,32.34
2022-08-25T10:42:53.799Z,32.37
2022-08-25T10:45:42.594Z,32.37
2022-08-25T10:48:13.237Z,32.41
2022-08-25T10:50:45.574Z,32.51
2022-08-25T10:53:40.138Z,32.40
2022-08-25T10:56:17.787Z,32.32
2022-08-25T10:59:05.002Z,32.22
2022-08-25T11:01:53.671Z,32.09
2022-08-25T11:04:26.409Z,32.01
2022-08-25T11:06:58.707Z,31.90
2022-08-25T11:09:36.377Z,31.84
2022-08-25T11:12:08.639Z,31.79
2022-08-25T11:14:53.557Z,31.66
2022-08-25T11:17:41.845Z,31.72
2022-08-25T11:20:19.112Z,31.87
2022-08-25T11:22:55.455Z,31.96
2022-08-25T11:25:29.624Z,31.97
2022-08-25T11:28:00.712Z,31.94
2022-08-25T11:30:29.197Z,31.90
2022-08-25T11:32:58.005Z,31.87
2022-08-25T11:35:37.657Z,31.90
2022-08-25T11:38:25.160Z,31.90
2022-08-25T11:41:15.590Z,32.07
2022-08-25T11:44:02.408Z,32.19
2022-08-25T11:46:31.108Z,32.18
2022-08-25T11:49:20.206Z,32.22
2022-08-25T11:51:51.114Z,32.33
2022-08-25T11:54:19.386Z,32.47
2022-08-25T11:56:59.344Z,32.57
2022-08-25T11:59:54.299Z,32.58
2022-08-25T12:02:35.764Z,32.43
2022-08-25T12:05:24.803Z,32.53
2022-08-25T12:08:11.826Z,32.58
2022-08-25T12:10:52.307Z,32.52
2022-08-25T12:13:25.819Z,32.53
2022-08-25T12:16:02.418Z,32.51
2022-08-25T12:18:31.291Z,32.46
2022-08-25T12:21:00.296Z,32.28
2022-08-25T12:23:45.537Z,32.11
2022-08-25T12:26:36.841Z,32.07
2022-08-25T12:29:14.960Z,32.04
2022-08-25T12:31:52.322Z,32.04
2022-08-25T12:34:20.503Z,32.09
2022-08-25T12:37:15.440Z,32.12
2022-08-25T12:39:58.675Z,32.12
2022-08-25T12:42:33.419Z,31.97
2022-08-25T12:45:17.005Z,32.03
2022-08-25T12:47:47.775Z,32.19
2022-08-25T12:50:42.331Z,32.45
2022-08-25T12:53:11.659Z,32.61
2022-08-25T12:55:42.115Z,32.72
2022-08-25T12:58:11.772Z,32.68
2022-08-25T13:00:57.856Z,32.70
2022-08-25T13:03:58.556Z,32.85
2022-08-25T13:06:32.621Z,32.98
2022-08-25T13:09:25.208Z,33.03
2022-08-25T13:11:53.348Z,32.96
2022-08-25T13:14:26.980Z,32.93
2022-08-25T13:16:57.813Z,32.81
2022-08-25T13:19:27.536Z,32.79
2022-08-25T13:22:17.958Z,32.86
2022-08-25T13:24:50.605Z,32.86
2022-08-25T13:27:24.643Z,32.82
2022-08-25T13:29:58.424Z,32.81
2022-08-25T13:32:29.703Z,32.82
2022-08-25T13:35:17.814Z,32.76
2022-08-25T13:37:49.252Z,32.67
2022-08-25T13:40:25.925Z,32.59
2022-08-25T13:43:02.919Z,32.55
2022-08-25T13:45:34.941Z,32.57
2022-08-25T13:48:23.156Z,32.53
2022-08-25T13:51:05.931Z,32.41
2022-08-25T13:53:34.293Z,32.27
2022-08-25T13:56:03.813Z,32.26
2022-08-25T13:58:38.869Z,32.24
2022-08-25T14:01:22.143Z,32.31
2022-08-25T14:04:24.529Z,32.25
2022-08-25T14:07:12.628Z,32.18
2022-08-25T14:09:45.792Z,32.14
2022-08-25T14:12:33.500Z,31.99
2022-08-25T14:15:04.875Z,31.81
2022-08-25T14:17:40.327Z,31.69
2022-08-25T14:20:27.489Z,31.55
2022-08-25T14:23:05.388Z,31.34
2022-08-25T14:25:40.501Z,31.23
2022-08-25T14:28:13.875Z,31.16
2022-08-25T14:31:02.515Z,31.13
2022-08-25T14:33:36.242Z,31.17
2022-08-25T14:36:06.290Z,31.25
2022-08-25T14:38:35.719Z,31.27
2022-08-25T14:43:40.563Z,31.21
2022-08-25T14:46:18.906Z,31.20
2022-08-25T14:48:50.066Z,31.27
2022-08-25T14:51:18.310Z,31.36
2022-08-25T14:53:46.835Z,31.43
2022-08-25T14:56:15.041Z,31.49
2022-08-25T14:58:51.596Z,31.50
2022-08-25T15:01:29.619Z,31.39
2022-08-25T15:04:20.754Z,31.16
2022-08-25T15:06:51.484Z,30.99
2022-08-25T15:09:21.765Z,30.84
2022-08-25T15:11:59.458Z,30.73
2022-08-25T15:14:29.196Z,30.57
2022-08-25T15:17:03.853Z,30.43
2022-08-25T15:19:32.424Z,30.35
2022-08-25T15:22:00.622Z,30.30
2022-08-25T15:24:29.388Z,30.24
2022-08-25T15:27:02.177Z,30.17
2022-08-25T15:29:31.674Z,30.11
2022-08-25T15:32:00.664Z,30.03
2022-08-25T15:34:29.752Z,29.98
2022-08-25T15:36:58.864Z,29.92
2022-08-25T15:39:27.798Z,29.83
2022-08-25T15:42:02.663Z,29.73
2022-08-25T15:44:33.101Z,29.63
2022-08-25T15:47:01.283Z,29.52
2022-08-25T15:49:31.329Z,29.41
2022-08-25T15:52:00.492Z,29.31
2022-08-25T15:54:29.138Z,29.24
2022-08-25T15:56:58.825Z,29.14
2022-08-25T15:59:29.007Z,29.08
2022-08-25T16:01:57.659Z,29.01
2022-08-25T16:04:27.554Z,28.94
2022-08-25T16:06:55.850Z,28.88
2022-08-25T16:09:24.073Z,28.80
2022-08-25T16:11:56.168Z,28.73
2022-08-25T16:14:27.803Z,28.66
2022-08-25T16:16:58.408Z,28.61
2022-08-25T16:19:29.146Z,28.54
2022-08-25T16:21:58.357Z,28.46
2022-08-25T16:24:28.360Z,28.36
2022-08-25T16:27:11.609Z,28.27
2022-08-25T16:29:44.166Z,28.17
2022-08-25T16:32:13.981Z,28.08
2022-08-25T16:34:43.046Z,27.98
2022-08-25T16:37:13.740Z,27.89
2022-08-25T16:39:45.782Z,27.80
2022-08-25T16:42:14.667Z,27.71
2022-08-25T16:44:43.061Z,27.62
2022-08-25T16:47:13.957Z,27.53
2022-08-25T16:49:42.760Z,27.44
2022-08-25T16:52:31.172Z,27.33
2022-08-25T16:55:16.489Z,27.22
2022-08-25T16:57:47.449Z,27.09
2022-08-25T17:00:18.066Z,26.98
2022-08-25T17:02:48.729Z,26.85
2022-08-25T17:05:18.258Z,26.72
2022-08-25T17:08:06.790Z,26.60
2022-08-25T17:10:36.937Z,26.45
2022-08-25T17:13:05.644Z,26.32
2022-08-25T17:15:33.819Z,26.21
2022-08-25T17:18:02.439Z,26.09
2022-08-25T17:20:32.881Z,25.96
2022-08-25T17:23:03.556Z,25.85
2022-08-25T17:25:43.146Z,25.72
2022-08-25T17:28:12.865Z,25.62
2022-08-25T17:30:42.072Z,25.51
2022-08-25T17:33:10.644Z,25.41
2022-08-25T17:35:39.844Z,25.31
2022-08-25T17:38:08.677Z,25.20
2022-08-25T17:40:37.766Z,25.10
2022-08-25T17:43:09.184Z,25.01
2022-08-25T17:45:39.371Z,24.92
2022-08-25T17:48:09.061Z,24.80
2022-08-25T17:50:37.477Z,24.67
2022-08-25T17:53:11.029Z,24.54
2022-08-25T17:55:43.141Z,24.39
2022-08-25T17:58:13.177Z,24.24
2022-08-25T18:00:44.075Z,24.12
2022-08-25T18:03:12.519Z,24.02
2022-08-25T18:05:40.764Z,23.91
2022-08-25T18:08:10.704Z,23.86
2022-08-25T18:10:39.857Z,23.81
2022-08-25T18:13:08.608Z,23.77
2022-08-25T18:15:36.844Z,23.72
2022-08-25T18:18:05.657Z,23.68
2022-08-25T18:20:34.409Z,23.65
2022-08-25T18:23:05.829Z,23.61
2022-08-25T18:25:37.822Z,23.56
2022-08-25T18:28:10.395Z,23.51
2022-08-25T18:30:38.996Z,23.45
2022-08-25T18:33:07.594Z,23.40
2022-08-25T18:35:35.922Z,23.35
2022-08-25T18:38:26.162Z,23.31
2022-08-25T18:40:55.697Z,23.25
2022-08-25T18:43:24.027Z,23.19
2022-08-25T18:45:52.753Z,23.13
2022-08-25T18:48:26.665Z,23.08
2022-08-25T18:50:55.430Z,23.03
2022-08-25T18:53:36.672Z,22.99
2022-08-25T18:56:06.257Z,22.94
2022-08-25T18:58:34.495Z,22.89
2022-08-25T19:01:04.703Z,22.82
2022-08-25T19:03:33.517Z,22.78
2022-08-25T19:06:02.836Z,22.73
2022-08-25T19:08:31.170Z,22.71
2022-08-25T19:10:59.357Z,22.65
2022-08-25T19:13:27.595Z,22.58
2022-08-25T19:15:56.113Z,22.53
2022-08-25T19:18:26.000Z,22.45
2022-08-25T19:20:59.130Z,22.39
2022-08-25T19:23:27.513Z,22.33
2022-08-25T19:25:55.675Z,22.24
2022-08-25T19:28:28.465Z,22.16
2022-08-25T19:30:57.739Z,22.07
2022-08-25T19:33:42.038Z,21.99
2022-08-25T19:36:13.116Z,21.93
2022-08-25T19:38:41.925Z,21.86
2022-08-25T19:41:14.649Z,21.81
2022-08-25T19:43:56.458Z,21.77
2022-08-25T19:46:32.294Z,21.72
2022-08-25T19:49:08.525Z,21.67
2022-08-25T19:51:43.869Z,21.58
2022-08-25T19:54:15.334Z,21.49
2022-08-25T19:56:54.661Z,21.43
2022-08-25T19:59:25.375Z,21.37
2022-08-25T20:01:54.304Z,21.29
2022-08-25T20:04:24.129Z,21.22
2022-08-25T20:06:55.307Z,21.15
2022-08-25T20:09:39.059Z,21.09
2022-08-25T20:12:10.711Z,21.05
2022-08-25T20:14:39.143Z,21.02
2022-08-25T20:17:14.481Z,20.99
2022-08-25T20:19:54.477Z,20.95
2022-08-25T20:22:26.208Z,20.94
2022-08-25T20:24:57.959Z,20.92
2022-08-25T20:27:37.454Z,20.90
2022-08-25T20:30:07.881Z,20.86
2022-08-25T20:32:37.018Z,20.80
2022-08-25T20:35:08.998Z,20.71
2022-08-25T20:37:37.987Z,20.67
2022-08-25T20:40:07.693Z,20.66
2022-08-25T20:42:35.930Z,20.62
2022-08-25T20:45:06.746Z,20.59
2022-08-25T20:47:36.445Z,20.55
2022-08-25T20:50:07.466Z,20.53
2022-08-25T20:52:36.553Z,20.49
2022-08-25T20:55:08.580Z,20.40
2022-08-25T20:57:36.762Z,20.31
2022-08-25T21:00:06.124Z,20.25
2022-08-25T21:02:34.391Z,20.21
2022-08-25T21:05:03.693Z,20.16
2022-08-25T21:07:31.899Z,20.13
2022-08-25T21:10:10.759Z,20.10
2022-08-25T21:12:43.377Z,20.05
2022-08-25T21:15:13.782Z,19.97
2022-08-25T21:17:49.499Z,19.84
2022-08-25T21:20:25.767Z,19.74
2022-08-25T21:22:54.608Z,19.69
2022-08-25T21:25:23.210Z,19.64
2022-08-25T21:27:51.355Z,19.62
2022-08-25T21:30:19.578Z,19.61
2022-08-25T21:32:53.075Z,19.60
2022-08-25T21:35:23.371Z,19.59
2022-08-25T21:37:53.405Z,19.54
2022-08-25T21:40:23.284Z,19.48
2022-08-25T21:42:52.219Z,19.41
2022-08-25T21:45:21.783Z,19.35
2022-08-25T21:47:51.752Z,19.30
2022-08-25T21:50:21.140Z,19.28
2022-08-25T21:52:54.483Z,19.27
2022-08-25T21:55:24.035Z,19.25
2022-08-25T21:57:54.835Z,19.22
2022-08-25T22:00:23.177Z,19.20
2022-08-25T22:02:52.093Z,19.16
2022-08-25T22:05:20.333Z,19.11
2022-08-25T22:07:48.553Z,19.05
2022-08-25T22:10:18.185Z,19.01
2022-08-25T22:12:47.128Z,18.96
2022-08-25T22:15:16.698Z,18.95
2022-08-25T22:17:48.172Z,18.92
2022-08-25T22:20:17.775Z,18.88
2022-08-25T22:22:46.075Z,18.82
2022-08-25T22:25:14.314Z,18.81
2022-08-25T22:27:43.116Z,18.78
2022-08-25T22:30:13.927Z,18.72
2022-08-25T22:32:42.743Z,18.66
2022-08-25T22:35:14.044Z,18.65
2022-08-25T22:37:43.161Z,18.66
2022-08-25T22:40:11.754Z,18.67
2022-08-25T22:42:40.536Z,18.67
2022-08-25T22:45:10.605Z,18.66
2022-08-25T22:47:38.786Z,18.60
2022-08-25T22:50:09.808Z,18.52
2022-08-25T22:52:38.473Z,18.44
2022-08-25T22:55:11.291Z,18.40
2022-08-25T22:57:40.752Z,18.39
2022-08-25T23:00:10.674Z,18.34
2022-08-25T23:02:39.038Z,18.31
2022-08-25T23:05:08.466Z,18.28
2022-08-25T23:07:37.798Z,18.26
2022-08-25T23:10:10.530Z,18.23
2022-08-25T23:12:39.913Z,18.21
2022-08-25T23:15:12.921Z,18.17
2022-08-25T23:17:42.619Z,18.15
2022-08-25T23:20:29.839Z,18.12
2022-08-25T23:22:59.021Z,18.07
2022-08-25T23:25:27.361Z,18.03
2022-08-25T23:27:55.550Z,18.00
2022-08-25T23:30:27.127Z,17.99
2022-08-25T23:32:55.547Z,17.98
2022-08-25T23:35:23.689Z,17.98
2022-08-25T23:37:51.825Z,17.98
2022-08-25T23:40:20.424Z,17.99
2022-08-25T23:42:48.596Z,18.00
2022-08-25T23:45:16.793Z,18.01
2022-08-25T23:47:44.945Z,18.04
2022-08-25T23:50:13.127Z,18.06
2022-08-25T23:52:41.346Z,18.05
2022-08-25T23:55:10.141Z,18.03
2022-08-25T23:57:38.870Z,17.96
